Time;durP1;ratioP1;P1;durP2;ratioP2;P2;SDS_P1;SDS_P2;PMS_P1;PMS_P2;Temp;Humidity;BMP_temperature;BMP_pressure;BME280_temperature;BME280_humidity;BME280_pressure;Samples;Min_cycle;Max_cycle;Signal;HPM_P1;HPM_P2
2022/06/18 00:00:52;;;;;;;3.13;1.70;;;22.20;53.40;;;;;;5055430;28;20949;-46
2022/06/18 00:03:19;;;;;;;2.80;1.50;;;22.10;53.00;;;;;;5042951;28;20465;-47
2022/06/18 00:05:49;;;;;;;3.87;1.43;;;22.10;53.20;;;;;;5059825;28;21022;-46
2022/06/18 00:08:20;;;;;;;2.13;1.43;;;22.00;53.60;;;;;;5029223;28;20462;-46
2022/06/18 00:10:55;;;;;;;2.37;1.30;;;22.00;54.30;;;;;;5041110;28;20475;-47
2022/06/18 00:13:40;;;;;;;4.13;1.60;;;22.00;54.20;;;;;;5060778;28;20457;-46
2022/06/18 00:16:16;;;;;;;1.57;1.47;;;21.90;54.50;;;;;;5046928;28;21089;-46
2022/06/18 00:18:44;;;;;;;4.10;1.70;;;21.90;54.60;;;;;;5061344;28;20461;-47
2022/06/18 00:21:17;;;;;;;1.60;1.50;;;21.80;54.60;;;;;;5045673;28;20860;-46
2022/06/18 00:23:44;;;;;;;1.63;1.53;;;21.80;54.90;;;;;;5064831;28;20463;-46
2022/06/18 00:26:11;;;;;;;1.93;1.57;;;21.70;55.00;;;;;;5060140;28;20507;-46
2022/06/18 00:28:38;;;;;;;2.20;2.00;;;21.70;55.10;;;;;;5061117;28;21181;-46
2022/06/18 00:31:05;;;;;;;1.80;1.70;;;21.70;55.40;;;;;;5060722;28;20561;-46
2022/06/18 00:33:35;;;;;;;2.47;2.27;;;21.70;55.40;;;;;;5059008;28;20465;-46
2022/06/18 00:36:04;;;;;;;2.27;2.07;;;21.60;55.80;;;;;;5049835;28;20529;-46
2022/06/18 00:38:34;;;;;;;2.97;2.00;;;21.60;55.90;;;;;;5059206;28;20837;-46
2022/06/18 00:41:01;;;;;;;2.90;2.13;;;21.60;56.00;;;;;;5059453;28;20452;-46
2022/06/18 00:43:30;;;;;;;2.93;2.70;;;21.50;56.00;;;;;;5060090;28;20450;-46
2022/06/18 00:46:10;;;;;;;3.00;2.50;;;21.50;56.10;;;;;;5045993;28;20486;-46
2022/06/18 00:48:45;;;;;;;2.83;2.63;;;21.50;56.60;;;;;;5045025;28;21315;-47
2022/06/18 00:51:34;;;;;;;3.70;2.57;;;21.40;56.60;;;;;;5060389;28;20537;-46
2022/06/18 00:54:19;;;;;;;3.00;2.20;;;21.50;56.90;;;;;;5047805;28;20542;-46
2022/06/18 00:57:13;;;;;;;2.57;2.20;;;21.40;56.90;;;;;;5060849;28;20469;-46
2022/06/18 01:00:11;;;;;;;3.07;2.77;;;21.40;56.90;;;;;;5059337;28;20889;-46
2022/06/18 01:02:42;;;;;;;4.10;2.10;;;21.40;57.10;;;;;;5059802;28;20528;-47
2022/06/18 01:05:24;;;;;;;2.93;1.83;;;21.40;57.30;;;;;;5062600;28;20477;-46
2022/06/18 01:08:04;;;;;;;2.33;2.13;;;21.40;57.10;;;;;;5059259;28;20458;-47
2022/06/18 01:10:37;;;;;;;3.40;1.90;;;21.30;56.70;;;;;;5062346;28;20504;-46
2022/06/18 01:13:08;;;;;;;2.10;1.77;;;21.30;56.80;;;;;;5059477;28;20485;-46
2022/06/18 01:15:35;;;;;;;2.07;1.70;;;21.30;56.70;;;;;;5060137;28;20515;-46
2022/06/18 01:18:04;;;;;;;3.33;1.50;;;21.30;56.70;;;;;;5058755;28;20493;-46
2022/06/18 01:20:40;;;;;;;1.93;1.47;;;21.20;56.60;;;;;;5058600;28;20449;-46
2022/06/18 01:23:14;;;;;;;1.60;1.50;;;21.20;56.90;;;;;;5060413;28;20514;-46
2022/06/18 01:25:41;;;;;;;3.20;1.70;;;21.20;56.80;;;;;;5059722;28;20453;-46
2022/06/18 01:28:09;;;;;;;2.60;1.80;;;21.20;56.70;;;;;;5061777;28;21022;-46
2022/06/18 01:30:39;;;;;;;2.80;1.70;;;21.10;56.80;;;;;;5063832;28;20535;-46
2022/06/18 01:33:07;;;;;;;3.37;1.80;;;21.00;57.00;;;;;;5046720;28;20485;-46
2022/06/18 01:35:41;;;;;;;3.60;2.00;;;21.00;57.30;;;;;;5046500;28;20460;-46
2022/06/18 01:38:10;;;;;;;1.97;1.73;;;20.90;57.60;;;;;;5058985;28;20545;-46
2022/06/18 01:40:51;;;;;;;5.53;1.90;;;20.90;57.70;;;;;;5056153;28;20458;-46
2022/06/18 01:43:20;;;;;;;1.87;1.77;;;20.90;58.20;;;;;;5023421;28;20463;-46
2022/06/18 01:45:54;;;;;;;3.27;1.83;;;20.80;58.20;;;;;;5030140;28;20959;-46
2022/06/18 01:48:33;;;;;;;2.27;2.03;;;20.80;58.30;;;;;;5053469;28;20462;-46
2022/06/18 01:51:19;;;;;;;1.70;1.60;;;20.80;58.10;;;;;;5061939;28;20465;-46
2022/06/18 01:54:18;;;;;;;2.30;2.10;;;20.70;58.30;;;;;;5054152;28;20561;-46
2022/06/18 01:56:51;;;;;;;1.87;1.73;;;20.70;58.50;;;;;;5042481;28;20592;-46
2022/06/18 01:59:27;;;;;;;2.40;1.77;;;20.70;58.50;;;;;;5057308;28;20818;-47
2022/06/18 02:01:56;;;;;;;1.50;1.40;;;20.70;58.50;;;;;;5041384;28;20887;-46
2022/06/18 02:04:27;;;;;;;2.80;2.07;;;20.60;58.70;;;;;;5055774;28;20517;-46
2022/06/18 02:06:54;;;;;;;2.53;1.90;;;20.50;59.00;;;;;;5057273;28;20962;-46
2022/06/18 02:09:49;;;;;;;1.90;1.77;;;20.50;59.30;;;;;;5058485;28;20537;-46
2022/06/18 02:12:23;;;;;;;2.23;1.67;;;20.40;59.50;;;;;;5057782;28;20522;-46
2022/06/18 02:14:54;;;;;;;4.87;2.50;;;20.40;59.70;;;;;;5059431;28;20586;-47
2022/06/18 02:17:21;;;;;;;3.67;2.00;;;20.40;59.50;;;;;;5061781;28;20580;-48
2022/06/18 02:20:08;;;;;;;2.20;1.60;;;20.40;59.70;;;;;;5058648;28;20467;-48
2022/06/18 02:22:41;;;;;;;1.63;1.53;;;20.30;59.70;;;;;;5048389;28;20552;-48
2022/06/18 02:25:09;;;;;;;3.43;2.07;;;20.30;59.70;;;;;;5071863;28;20471;-47
2022/06/18 02:27:39;;;;;;;2.80;1.70;;;20.30;59.80;;;;;;5072776;28;20462;-47
2022/06/18 02:30:12;;;;;;;3.27;1.87;;;20.20;59.80;;;;;;5070096;28;20487;-47
2022/06/18 02:32:55;;;;;;;1.67;1.57;;;20.20;59.80;;;;;;5072622;28;20497;-47
2022/06/18 02:35:21;;;;;;;2.97;1.50;;;20.20;59.80;;;;;;5053035;28;20461;-47
2022/06/18 02:37:48;;;;;;;2.40;2.20;;;20.20;59.80;;;;;;5054536;28;20460;-47
2022/06/18 02:40:20;;;;;;;1.73;1.50;;;20.20;59.90;;;;;;5071567;28;20533;-47
2022/06/18 02:42:49;;;;;;;1.73;1.50;;;20.20;60.20;;;;;;5071011;28;20889;-47
2022/06/18 02:45:18;;;;;;;1.80;1.70;;;20.20;60.30;;;;;;5055557;28;20496;-47
2022/06/18 02:47:45;;;;;;;2.07;1.97;;;20.20;60.40;;;;;;5068270;28;20474;-47
2022/06/18 02:50:15;;;;;;;3.83;1.60;;;20.20;60.20;;;;;;5064260;28;20486;-47
2022/06/18 02:52:55;;;;;;;2.10;1.80;;;20.10;60.50;;;;;;5055078;28;20514;-47
2022/06/18 02:55:32;;;;;;;1.50;1.40;;;20.20;60.80;;;;;;5054395;28;20961;-47
2022/06/18 02:58:07;;;;;;;1.90;1.80;;;20.10;60.70;;;;;;5054534;28;20454;-47
2022/06/18 03:00:37;;;;;;;1.77;1.67;;;20.10;60.70;;;;;;5069045;28;20489;-47
2022/06/18 03:03:10;;;;;;;4.67;2.10;;;20.10;60.80;;;;;;5058578;28;20797;-47
2022/06/18 03:05:38;;;;;;;1.70;1.50;;;20.10;60.90;;;;;;5069783;28;20479;-47
2022/06/18 03:08:06;;;;;;;2.37;1.90;;;20.00;61.10;;;;;;5056478;28;20563;-47
2022/06/18 03:13:18;;;;;;;3.53;1.90;;;20.10;61.40;;;;;;5070548;28;20573;-47
2022/06/18 03:15:46;;;;;;;2.63;2.00;;;20.10;61.40;;;;;;5078314;28;20501;-47
2022/06/18 03:18:15;;;;;;;1.83;1.73;;;20.00;61.50;;;;;;5071657;28;20511;-47
2022/06/18 03:21:02;;;;;;;3.13;2.00;;;20.00;61.50;;;;;;5072165;28;20464;-47
2022/06/18 03:23:30;;;;;;;4.20;1.77;;;19.90;61.50;;;;;;5055469;28;20492;-47
2022/06/18 03:25:57;;;;;;;2.73;2.10;;;19.90;61.70;;;;;;5068210;28;20450;-47
2022/06/18 03:28:26;;;;;;;2.03;1.93;;;19.90;61.80;;;;;;5070719;28;20458;-47
2022/06/18 03:30:53;;;;;;;3.00;2.03;;;19.90;61.80;;;;;;5068276;28;20485;-47
2022/06/18 03:33:20;;;;;;;2.37;2.10;;;19.90;62.10;;;;;;5070983;28;20502;-46
2022/06/18 03:35:49;;;;;;;2.10;1.90;;;19.90;62.40;;;;;;5064349;28;20485;-46
2022/06/18 03:38:22;;;;;;;2.10;2.00;;;19.90;62.30;;;;;;5075039;28;20458;-47
2022/06/18 03:40:52;;;;;;;2.13;1.93;;;19.80;62.30;;;;;;5057167;28;20468;-47
2022/06/18 03:43:20;;;;;;;2.50;2.20;;;19.80;62.50;;;;;;5057807;28;20497;-47
2022/06/18 03:45:51;;;;;;;2.33;2.03;;;19.80;62.60;;;;;;5047665;28;20478;-47
2022/06/18 03:48:26;;;;;;;3.83;2.30;;;19.80;62.70;;;;;;5068908;28;20454;-47
2022/06/18 03:50:52;;;;;;;1.60;1.50;;;19.80;62.70;;;;;;5054034;28;20461;-47
2022/06/18 03:53:19;;;;;;;2.40;2.20;;;19.80;62.80;;;;;;5055863;28;20485;-47
2022/06/18 03:55:49;;;;;;;3.10;2.20;;;19.80;62.90;;;;;;5054873;28;20505;-47
2022/06/18 03:58:16;;;;;;;3.37;2.40;;;19.80;62.90;;;;;;5056859;28;20716;-47
2022/06/18 04:00:43;;;;;;;5.57;2.60;;;19.80;63.00;;;;;;5069952;28;20474;-47
2022/06/18 04:03:10;;;;;;;5.70;2.57;;;19.80;63.00;;;;;;5054108;28;20521;-47
2022/06/18 04:05:40;;;;;;;2.23;2.03;;;19.80;63.20;;;;;;5068819;28;20840;-47
2022/06/18 04:08:11;;;;;;;3.60;2.00;;;19.80;63.20;;;;;;5072375;28;20461;-47
2022/06/18 04:10:39;;;;;;;4.50;1.97;;;19.80;63.30;;;;;;5057665;28;20769;-47
2022/06/18 04:13:06;;;;;;;2.67;2.30;;;19.80;63.30;;;;;;5072758;28;20478;-47
2022/06/18 04:15:33;;;;;;;2.17;1.70;;;19.80;63.30;;;;;;5069850;28;20509;-47
2022/06/18 04:17:59;;;;;;;2.80;2.13;;;19.80;63.40;;;;;;5072540;28;20493;-47
2022/06/18 04:20:29;;;;;;;3.50;2.20;;;19.80;63.50;;;;;;5071162;28;20473;-47
2022/06/18 04:22:57;;;;;;;3.20;2.43;;;19.80;63.60;;;;;;5067139;28;20454;-47
2022/06/18 04:25:24;;;;;;;2.70;2.17;;;19.80;63.60;;;;;;5071110;28;20462;-47
2022/06/18 04:27:51;;;;;;;2.53;2.33;;;19.90;63.70;;;;;;5071619;28;20489;-47
2022/06/18 04:30:21;;;;;;;2.53;2.27;;;19.90;63.80;;;;;;5068963;28;20470;-47
2022/06/18 04:32:48;;;;;;;1.90;1.80;;;19.90;64.10;;;;;;5072019;28;20905;-47
2022/06/18 04:35:15;;;;;;;2.90;2.33;;;19.90;64.30;;;;;;5054858;28;20465;-47
2022/06/18 04:37:43;;;;;;;2.67;2.37;;;19.90;64.40;;;;;;5072150;28;20480;-47
2022/06/18 04:40:16;;;;;;;4.20;2.30;;;19.90;64.50;;;;;;5074797;28;20484;-47
2022/06/18 04:43:07;;;;;;;2.87;2.67;;;19.90;64.60;;;;;;5074290;28;20462;-47
2022/06/18 04:45:34;;;;;;;2.63;2.30;;;20.00;64.70;;;;;;5073576;28;20541;-47
2022/06/18 04:48:02;;;;;;;2.47;2.27;;;20.00;64.60;;;;;;5055399;28;20557;-47
2022/06/18 04:50:33;;;;;;;3.60;1.93;;;20.00;64.50;;;;;;5074337;28;20930;-47
2022/06/18 04:53:00;;;;;;;2.40;2.20;;;20.00;64.50;;;;;;5056603;28;20513;-47
2022/06/18 04:55:29;;;;;;;3.60;2.13;;;20.10;64.50;;;;;;5074995;28;20509;-47
2022/06/18 04:57:57;;;;;;;5.13;2.43;;;20.10;64.60;;;;;;5071856;28;20488;-47
2022/06/18 05:00:24;;;;;;;3.00;2.40;;;20.20;64.80;;;;;;5074964;28;20478;-47
2022/06/18 05:02:51;;;;;;;2.97;2.20;;;20.20;64.70;;;;;;5069944;28;20481;-47
2022/06/18 05:05:22;;;;;;;4.23;2.40;;;20.30;64.60;;;;;;5073868;28;20466;-47
2022/06/18 05:07:48;;;;;;;3.37;2.40;;;20.30;64.80;;;;;;5073737;28;20457;-47
2022/06/18 05:10:15;;;;;;;5.50;2.47;;;20.40;65.00;;;;;;5060984;28;20460;-47
2022/06/18 05:12:42;;;;;;;4.77;2.80;;;20.50;65.10;;;;;;5061586;28;20573;-47
2022/06/18 05:15:11;;;;;;;3.60;2.30;;;20.50;65.00;;;;;;5074531;28;20501;-47
2022/06/18 05:17:45;;;;;;;3.00;2.77;;;20.60;64.60;;;;;;5056181;28;20504;-47
2022/06/18 05:20:21;;;;;;;5.53;2.73;;;20.70;64.50;;;;;;5072579;28;20529;-47
2022/06/18 05:22:48;;;;;;;3.60;3.07;;;20.70;63.70;;;;;;5062402;28;20512;-47
2022/06/18 05:25:16;;;;;;;2.57;2.37;;;20.80;63.30;;;;;;5058355;28;20500;-47
2022/06/18 05:27:45;;;;;;;2.20;2.00;;;20.90;63.10;;;;;;5074171;28;20490;-47
2022/06/18 05:30:19;;;;;;;4.60;2.70;;;20.90;62.60;;;;;;5070337;28;20473;-47
2022/06/18 05:32:45;;;;;;;6.97;2.53;;;20.90;62.30;;;;;;5061842;28;20508;-47
2022/06/18 05:35:13;;;;;;;2.87;2.63;;;20.90;62.60;;;;;;5072458;28;20478;-47
2022/06/18 05:37:40;;;;;;;3.03;2.60;;;21.00;62.80;;;;;;5065364;28;20501;-47
2022/06/18 05:40:08;;;;;;;2.93;2.47;;;21.00;63.00;;;;;;5073811;28;20466;-47
2022/06/18 05:42:35;;;;;;;3.03;2.77;;;21.10;62.50;;;;;;5073236;28;20453;-47
2022/06/18 05:45:02;;;;;;;2.63;2.33;;;21.10;62.50;;;;;;5075326;28;20477;-47
2022/06/18 05:47:31;;;;;;;3.63;2.27;;;21.10;62.30;;;;;;5051827;28;20461;-47
2022/06/18 05:49:59;;;;;;;4.10;2.63;;;21.20;62.00;;;;;;5073416;28;20468;-47
2022/06/18 05:52:29;;;;;;;5.30;2.60;;;21.20;61.90;;;;;;5050963;28;20956;-47
2022/06/18 05:54:56;;;;;;;2.93;2.40;;;21.30;61.90;;;;;;5071982;28;20497;-47
2022/06/18 05:57:23;;;;;;;2.73;2.53;;;21.40;61.70;;;;;;5071857;28;20546;-47
2022/06/18 05:59:50;;;;;;;2.47;2.27;;;21.40;60.60;;;;;;5070419;28;20498;-47
2022/06/18 06:02:19;;;;;;;3.33;2.03;;;21.50;59.80;;;;;;5068969;28;20529;-47
2022/06/18 06:04:46;;;;;;;3.30;2.17;;;21.60;59.70;;;;;;5045917;28;20493;-47
2022/06/18 06:07:14;;;;;;;2.83;2.53;;;21.60;59.20;;;;;;5052015;28;20479;-47
2022/06/18 06:12:27;;;;;;;5.13;2.63;;;21.70;59.30;;;;;;5073572;28;20994;-47
2022/06/18 06:14:55;;;;;;;3.30;2.23;;;21.90;59.80;;;;;;5068986;28;21580;-47
2022/06/18 06:17:24;;;;;;;2.60;2.40;;;22.00;59.80;;;;;;5070047;28;20472;-47
2022/06/18 06:19:58;;;;;;;2.50;2.30;;;22.10;59.70;;;;;;5069698;28;20536;-47
2022/06/18 06:22:25;;;;;;;3.23;2.07;;;22.20;59.30;;;;;;5069397;28;20457;-47
2022/06/18 06:24:52;;;;;;;3.33;2.30;;;22.40;58.90;;;;;;5072866;28;20519;-48
2022/06/18 06:27:19;;;;;;;4.33;2.30;;;22.40;58.80;;;;;;5071974;28;20592;-47
2022/06/18 06:29:46;;;;;;;4.70;2.50;;;22.60;58.40;;;;;;5053652;28;20469;-47
2022/06/18 06:32:13;;;;;;;1.80;1.70;;;22.60;57.90;;;;;;5071405;28;20540;-47
2022/06/18 06:34:40;;;;;;;3.10;2.00;;;22.60;57.40;;;;;;5070001;28;20495;-47
2022/06/18 06:37:07;;;;;;;4.27;3.00;;;22.70;56.70;;;;;;5069978;28;20710;-47
2022/06/18 06:39:33;;;;;;;4.93;2.60;;;22.80;56.60;;;;;;5064460;28;20469;-47
2022/06/18 06:42:00;;;;;;;4.50;2.93;;;23.00;56.80;;;;;;5050843;28;20540;-48
2022/06/18 06:44:27;;;;;;;5.37;2.37;;;23.00;56.50;;;;;;5069350;28;20494;-47
2022/06/18 06:46:54;;;;;;;2.77;2.37;;;23.00;56.20;;;;;;5069075;28;20472;-48
2022/06/18 06:49:21;;;;;;;2.90;2.20;;;23.10;56.10;;;;;;5068240;28;20804;-47
2022/06/18 06:51:48;;;;;;;7.03;2.57;;;23.20;56.30;;;;;;5050473;28;20453;-47
2022/06/18 06:54:15;;;;;;;2.53;2.33;;;23.40;56.50;;;;;;5068199;28;20573;-48
2022/06/18 06:59:27;;;;;;;3.50;2.77;;;23.70;55.70;;;;;;5069519;28;20588;-48
2022/06/18 07:01:53;;;;;;;2.37;1.90;;;23.80;54.90;;;;;;5051128;28;20456;-48
2022/06/18 07:04:21;;;;;;;5.57;2.47;;;24.00;54.50;;;;;;5072785;28;20437;-47
2022/06/18 07:06:48;;;;;;;3.67;2.30;;;24.10;53.60;;;;;;5053715;28;20512;-48
2022/06/18 07:09:14;;;;;;;2.30;2.13;;;24.30;52.90;;;;;;5056755;28;20529;-48
2022/06/18 07:11:43;;;;;;;2.70;2.07;;;24.40;50.10;;;;;;5068042;28;20476;-47
2022/06/18 07:14:10;;;;;;;2.30;2.10;;;24.50;48.90;;;;;;5066411;28;20496;-48
2022/06/18 07:16:47;;;;;;;3.40;2.20;;;24.70;48.90;;;;;;5067882;28;20470;-48
2022/06/18 07:19:15;;;;;;;2.37;2.17;;;24.90;49.20;;;;;;5046388;28;20453;-48
2022/06/18 07:21:41;;;;;;;2.87;2.13;;;25.10;49.00;;;;;;5061325;28;20961;-48
2022/06/18 07:24:08;;;;;;;2.27;2.07;;;25.30;48.10;;;;;;5065312;28;20575;-48
2022/06/18 07:26:35;;;;;;;2.10;2.00;;;25.50;48.00;;;;;;5067446;28;20463;-48
2022/06/18 07:29:02;;;;;;;2.63;2.00;;;25.70;48.30;;;;;;5061845;28;21048;-48
2022/06/18 07:31:32;;;;;;;2.80;2.20;;;25.80;47.70;;;;;;5072143;28;20528;-48
2022/06/18 07:33:59;;;;;;;2.53;2.00;;;26.00;47.00;;;;;;5060809;28;20491;-47
2022/06/18 07:36:26;;;;;;;3.20;2.17;;;26.20;46.70;;;;;;5067517;28;20468;-47
2022/06/18 07:38:53;;;;;;;2.90;1.77;;;26.30;47.10;;;;;;5063042;28;20484;-47
2022/06/18 07:41:24;;;;;;;4.10;2.70;;;26.40;47.00;;;;;;5054956;28;20546;-47
2022/06/18 07:43:54;;;;;;;2.30;2.10;;;26.50;46.60;;;;;;5065050;28;20472;-47
2022/06/18 07:46:21;;;;;;;4.73;2.83;;;26.70;46.80;;;;;;5071480;28;20508;-47
2022/06/18 07:48:48;;;;;;;2.37;2.17;;;26.90;46.30;;;;;;5054101;28;20710;-47
2022/06/18 07:51:15;;;;;;;2.87;2.57;;;27.00;46.10;;;;;;5070818;28;20874;-47
2022/06/18 07:53:43;;;;;;;3.87;2.37;;;27.20;45.70;;;;;;5046695;28;20490;-47
2022/06/18 07:56:14;;;;;;;4.57;2.30;;;27.30;45.10;;;;;;5038359;28;20477;-47
2022/06/18 07:58:41;;;;;;;6.17;2.57;;;27.40;44.90;;;;;;5053522;28;20268;-47
2022/06/18 08:01:08;;;;;;;3.40;2.10;;;27.60;44.70;;;;;;5052498;28;20230;-47
2022/06/18 08:03:35;;;;;;;3.97;2.17;;;27.80;44.60;;;;;;5069771;28;20703;-47
2022/06/18 08:06:03;;;;;;;3.03;2.73;;;28.00;44.70;;;;;;5065312;28;20282;-47
2022/06/18 08:08:30;;;;;;;5.60;2.40;;;28.20;44.50;;;;;;5062889;28;20290;-47
2022/06/18 08:11:05;;;;;;;1.90;1.80;;;28.40;44.40;;;;;;5073102;28;20195;-47
2022/06/18 08:13:32;;;;;;;6.90;1.93;;;28.60;43.60;;;;;;5066989;28;20231;-46
2022/06/18 08:16:00;;;;;;;3.20;2.37;;;28.70;43.90;;;;;;5061469;28;20301;-47
2022/06/18 08:18:27;;;;;;;2.80;1.97;;;28.80;43.80;;;;;;5064571;28;20297;-47
2022/06/18 08:21:01;;;;;;;2.65;2.42;;;28.90;43.30;;;;;;5067313;28;20238;-47
2022/06/18 08:23:28;;;;;;;2.00;1.73;;;29.10;43.50;;;;;;5051635;28;20274;-47
2022/06/18 08:25:55;;;;;;;2.27;2.07;;;29.30;43.60;;;;;;5050223;28;20241;-47
2022/06/18 08:28:22;;;;;;;2.33;2.10;;;29.50;43.60;;;;;;5068952;28;20242;-47
2022/06/18 08:30:49;;;;;;;1.90;1.80;;;29.70;43.20;;;;;;5052202;28;20230;-48
2022/06/18 08:33:17;;;;;;;2.03;1.92;;;29.80;42.90;;;;;;5073195;28;20289;-48
2022/06/18 08:35:44;;;;;;;3.92;2.17;;;29.90;42.60;;;;;;5069269;28;20279;-48
2022/06/18 08:38:13;;;;;;;5.15;2.17;;;30.10;42.60;;;;;;5056487;28;20206;-48
2022/06/18 08:40:45;;;;;;;2.17;1.95;;;30.30;42.50;;;;;;5071975;28;20207;-48
2022/06/18 08:43:44;;;;;;;3.05;2.03;;;30.40;42.20;;;;;;5071795;28;20213;-48
2022/06/18 08:46:32;;;;;;;2.58;2.08;;;30.50;42.20;;;;;;5031150;28;20680;-48
2022/06/18 08:49:04;;;;;;;2.50;2.30;;;30.60;42.00;;;;;;5070698;28;20506;-48
2022/06/18 08:52:09;;;;;;;2.22;2.13;;;30.80;41.80;;;;;;5070554;28;20649;-48
2022/06/18 08:54:55;;;;;;;2.30;2.20;;;31.00;41.50;;;;;;5071878;28;20237;-48
2022/06/18 08:58:00;;;;;;;3.13;1.92;;;31.20;40.30;;;;;;5057204;28;20249;-48
2022/06/18 09:00:37;;;;;;;2.42;2.13;;;31.20;40.20;;;;;;5073181;28;20265;-48
2022/06/18 09:03:18;;;;;;;3.05;2.33;;;31.30;40.30;;;;;;5055720;28;20256;-48
2022/06/18 09:06:09;;;;;;;2.67;2.40;;;31.40;41.00;;;;;;5076099;28;20744;-48
2022/06/18 09:09:09;;;;;;;3.55;2.35;;;31.50;40.50;;;;;;5072497;28;20234;-48
2022/06/18 09:12:09;;;;;;;2.20;1.95;;;31.60;39.70;;;;;;5070688;28;20226;-48
2022/06/18 09:14:58;;;;;;;4.97;2.42;;;31.80;39.50;;;;;;5061704;28;20254;-48
2022/06/18 09:17:40;;;;;;;3.53;2.00;;;31.90;39.60;;;;;;5078555;28;20668;-48
2022/06/18 09:20:22;;;;;;;2.45;1.60;;;31.90;39.60;;;;;;5073802;28;20200;-48
2022/06/18 09:22:56;;;;;;;2.17;1.98;;;32.10;39.00;;;;;;5063545;28;20238;-48
2022/06/18 09:25:27;;;;;;;4.18;2.08;;;32.20;39.10;;;;;;5069496;28;20571;-48
2022/06/18 09:28:06;;;;;;;3.25;1.73;;;32.30;39.10;;;;;;5076057;28;20293;-48
2022/06/18 09:30:47;;;;;;;2.65;2.45;;;32.50;38.90;;;;;;5071208;28;20207;-48
2022/06/18 09:33:19;;;;;;;4.22;2.03;;;32.60;38.60;;;;;;5074638;28;20210;-48
2022/06/18 09:35:56;;;;;;;3.28;1.92;;;32.70;38.50;;;;;;5066786;28;20225;-48
2022/06/18 09:38:35;;;;;;;6.35;2.55;;;32.90;38.00;;;;;;5071689;28;20255;-48
2022/06/18 09:41:09;;;;;;;3.60;2.38;;;33.00;38.00;;;;;;5065415;28;20270;-48
2022/06/18 09:44:31;;;;;;;2.13;2.03;;;33.10;37.90;;;;;;5041178;28;20430;-48
2022/06/18 09:47:18;;;;;;;3.33;2.30;;;33.30;37.70;;;;;;5053942;28;20748;-48
2022/06/18 09:49:47;;;;;;;1.85;1.75;;;33.60;37.20;;;;;;5074344;28;20238;-48
2022/06/18 09:52:35;;;;;;;4.25;2.15;;;33.70;37.40;;;;;;5052601;28;20223;-49
2022/06/18 09:55:08;;;;;;;2.83;2.63;;;33.80;37.10;;;;;;5048573;28;20348;-48
2022/06/18 09:57:39;;;;;;;4.82;2.00;;;33.80;37.50;;;;;;5052957;28;20227;-48
2022/06/18 10:00:16;;;;;;;3.83;2.00;;;34.00;37.40;;;;;;5072392;28;20283;-48
2022/06/18 10:02:49;;;;;;;2.42;1.85;;;34.10;35.50;;;;;;5071207;28;20671;-48
2022/06/18 10:08:09;;;;;;;2.75;2.05;;;34.20;35.80;;;;;;5069513;28;20301;-49
2022/06/18 10:10:39;;;;;;;4.00;2.42;;;34.30;35.90;;;;;;5071057;28;20206;-48
2022/06/18 10:13:14;;;;;;;3.97;1.70;;;34.30;36.10;;;;;;5072584;28;20314;-48
2022/06/18 10:15:41;;;;;;;5.78;2.45;;;34.30;36.40;;;;;;5055169;28;20240;-48
2022/06/18 10:18:24;;;;;;;3.10;2.33;;;34.40;36.70;;;;;;5047876;28;20794;-48
2022/06/18 10:21:00;;;;;;;3.35;2.30;;;34.50;35.60;;;;;;5070207;28;20297;-48
2022/06/18 10:24:10;;;;;;;2.40;2.20;;;34.60;35.70;;;;;;5056015;28;20651;-49
2022/06/18 10:26:37;;;;;;;3.03;2.08;;;34.70;35.30;;;;;;4998659;28;20197;-49
2022/06/18 10:29:30;;;;;;;3.47;2.33;;;34.80;35.40;;;;;;4990735;28;20279;-48
2022/06/18 10:32:03;;;;;;;3.38;2.20;;;35.00;35.20;;;;;;5047446;28;20678;-49
2022/06/18 10:34:55;;;;;;;6.85;2.00;;;35.00;35.50;;;;;;5071338;28;20235;-49
2022/06/18 10:37:32;;;;;;;3.90;2.20;;;35.20;36.10;;;;;;5063300;28;20222;-48
2022/06/18 10:40:30;;;;;;;2.83;2.33;;;35.20;34.50;;;;;;5068121;28;20195;-49
2022/06/18 10:43:25;;;;;;;2.90;2.30;;;35.00;34.90;;;;;;5044835;28;20294;-48
2022/06/18 10:46:14;;;;;;;2.47;2.28;;;34.90;35.60;;;;;;5069048;28;20294;-49
2022/06/18 10:49:06;;;;;;;2.60;2.35;;;34.90;35.50;;;;;;5055317;28;20218;-49
2022/06/18 10:51:46;;;;;;;7.78;2.30;;;34.90;35.80;;;;;;5068333;28;20484;-49
2022/06/18 10:54:14;;;;;;;3.97;2.63;;;34.80;35.90;;;;;;5069423;28;20246;-49
2022/06/18 10:56:59;;;;;;;4.65;2.63;;;34.80;35.60;;;;;;5067705;28;20235;-49
2022/06/18 10:59:27;;;;;;;4.28;3.58;;;34.70;35.80;;;;;;5051391;28;20247;-47
2022/06/18 11:01:54;;;;;;;4.70;2.95;;;34.50;35.80;;;;;;5066663;28;20218;-48
2022/06/18 11:04:25;;;;;;;6.50;2.95;;;34.20;36.30;;;;;;5065950;28;20219;-47
2022/06/18 11:06:59;;;;;;;5.07;2.70;;;34.10;36.70;;;;;;5073948;28;20281;-48
2022/06/18 11:09:30;;;;;;;5.85;2.95;;;34.00;37.00;;;;;;5067614;28;20230;-48
2022/06/18 11:12:05;;;;;;;4.72;2.63;;;34.00;37.30;;;;;;5074639;28;20750;-47
2022/06/18 11:14:42;;;;;;;8.93;2.90;;;33.80;37.40;;;;;;5070359;28;20230;-47
2022/06/18 11:17:21;;;;;;;2.67;2.47;;;33.70;37.80;;;;;;5068487;28;20314;-49
2022/06/18 11:19:48;;;;;;;6.07;3.03;;;33.60;37.30;;;;;;5069952;28;20238;-48
2022/06/18 11:22:27;;;;;;;7.43;4.03;;;33.50;36.40;;;;;;5070879;28;20198;-48
2022/06/18 11:24:59;;;;;;;5.05;2.65;;;33.40;36.40;;;;;;5067516;28;20202;-48
2022/06/18 11:27:34;;;;;;;9.52;2.67;;;33.50;36.10;;;;;;5053636;28;20223;-48
2022/06/18 11:30:08;;;;;;;4.13;3.13;;;33.50;37.00;;;;;;5068298;28;20305;-48
2022/06/18 11:32:40;;;;;;;2.88;2.50;;;33.40;37.30;;;;;;5073323;28;20199;-48
2022/06/18 11:35:10;;;;;;;6.25;3.78;;;33.50;38.20;;;;;;5065885;28;20732;-48
2022/06/18 11:37:37;;;;;;;4.63;2.58;;;33.50;38.30;;;;;;5061047;28;20928;-47
2022/06/18 11:40:07;;;;;;;3.33;2.60;;;33.40;37.20;;;;;;5069009;28;20211;-48
2022/06/18 11:42:40;;;;;;;4.78;2.92;;;33.40;37.80;;;;;;5052728;28;20662;-47
2022/06/18 11:45:35;;;;;;;6.45;3.17;;;33.40;37.20;;;;;;5064162;28;20206;-47
2022/06/18 11:48:05;;;;;;;6.57;2.97;;;33.40;37.10;;;;;;5064502;28;20207;-48
2022/06/18 11:50:38;;;;;;;6.45;3.15;;;33.30;37.50;;;;;;5061920;28;20752;-48
2022/06/18 11:53:10;;;;;;;6.22;3.78;;;33.40;37.40;;;;;;5055577;28;20230;-48
2022/06/18 11:55:44;;;;;;;4.15;2.38;;;33.40;37.30;;;;;;5069274;28;20223;-48
2022/06/18 11:58:26;;;;;;;5.50;2.95;;;33.30;37.40;;;;;;5063173;28;20634;-47
2022/06/18 12:00:56;;;;;;;8.15;3.50;;;33.30;37.70;;;;;;5063876;28;20228;-48
2022/06/18 12:03:43;;;;;;;4.78;2.80;;;33.40;36.20;;;;;;5067707;28;20203;-47
2022/06/18 12:06:29;;;;;;;10.18;3.67;;;33.40;36.50;;;;;;5070851;28;20647;-48
2022/06/18 12:09:17;;;;;;;9.05;2.88;;;33.40;35.70;;;;;;5064882;28;20242;-48
2022/06/18 12:11:57;;;;;;;9.50;3.78;;;33.40;35.30;;;;;;5070512;28;20214;-47
2022/06/18 12:14:35;;;;;;;7.18;2.70;;;33.40;35.40;;;;;;5047360;28;20245;-47
2022/06/18 12:17:08;;;;;;;5.70;3.03;;;33.40;35.00;;;;;;5070449;28;20229;-48
2022/06/18 12:19:57;;;;;;;11.25;3.22;;;33.40;35.00;;;;;;5068473;28;20203;-48
2022/06/18 12:22:37;;;;;;;47.13;7.78;;;33.50;35.00;;;;;;5065779;28;20203;-48
2022/06/18 12:25:40;;;;;;;6.28;2.63;;;33.50;35.40;;;;;;5064403;28;20700;-48
2022/06/18 12:28:13;;;;;;;6.22;3.35;;;33.60;34.80;;;;;;5061930;28;20199;-46
2022/06/18 12:30:48;;;;;;;12.55;3.00;;;33.60;35.00;;;;;;5062083;28;20621;-46
2022/06/18 12:33:25;;;;;;;7.82;2.97;;;33.60;34.80;;;;;;5066304;28;20218;-46
2022/06/18 12:36:03;;;;;;;5.90;3.25;;;33.70;34.60;;;;;;5051304;28;20614;-47
2022/06/18 12:38:39;;;;;;;15.25;3.60;;;33.70;34.50;;;;;;5049851;28;20238;-46
2022/06/18 12:41:38;;;;;;;5.97;3.10;;;33.70;34.40;;;;;;5047527;28;20203;-47
2022/06/18 12:44:08;;;;;;;5.90;3.03;;;33.70;34.70;;;;;;5063791;28;20207;-47
2022/06/18 12:46:38;;;;;;;5.70;2.78;;;33.70;34.10;;;;;;5066691;28;20590;-47
2022/06/18 12:49:34;;;;;;;16.70;3.35;;;33.80;34.10;;;;;;5064452;28;20591;-47
2022/06/18 12:52:13;;;;;;;10.57;3.00;;;33.70;34.20;;;;;;5047839;28;20298;-47
2022/06/18 12:55:14;;;;;;;7.70;3.13;;;33.70;34.00;;;;;;5067119;28;20225;-47
2022/06/18 12:58:13;;;;;;;12.32;3.97;;;33.80;34.10;;;;;;5062465;28;20947;-47
2022/06/18 13:00:59;;;;;;;8.13;3.03;;;33.90;34.30;;;;;;5045233;28;20297;-47
2022/06/18 13:03:25;;;;;;;7.07;3.15;;;34.00;33.60;;;;;;5062808;28;20386;-47
2022/06/18 13:06:20;;;;;;;7.72;2.85;;;34.00;33.70;;;;;;5047456;28;20656;-47
2022/06/18 13:09:11;;;;;;;16.30;3.47;;;34.00;33.60;;;;;;5058564;28;20679;-47
2022/06/18 13:11:56;;;;;;;11.20;4.20;;;34.10;34.40;;;;;;5046060;28;20215;-47
2022/06/18 13:14:37;;;;;;;8.85;2.92;;;34.10;33.50;;;;;;5061430;28;20294;-46
2022/06/18 13:17:17;;;;;;;7.03;3.33;;;34.10;32.90;;;;;;5062807;28;20305;-47
2022/06/18 13:19:57;;;;;;;6.32;2.83;;;34.10;32.70;;;;;;5059929;28;20208;-47
2022/06/18 13:22:25;;;;;;;10.93;2.88;;;34.10;32.70;;;;;;5063567;28;20248;-47
2022/06/18 13:30:53;;;;;;;6.22;3.08;;;34.30;33.40;;;;;;5062402;28;20631;-47
2022/06/18 13:33:43;;;;;;;4.97;3.35;;;34.40;34.00;;;;;;5050188;28;20211;-47
2022/06/18 13:36:15;;;;;;;5.32;2.60;;;34.40;34.00;;;;;;5063954;28;20315;-46